createdAt,value
2023-02-11T00:01:31.889Z,26.52
2023-02-11T00:04:34.870Z,30.33
2023-02-11T00:07:37.844Z,28.55
2023-02-11T00:10:40.246Z,28.43
2023-02-11T00:13:44.587Z,33.58
2023-02-11T00:16:47.103Z,30.98
2023-02-11T00:19:53.321Z,30.23
2023-02-11T00:22:55.995Z,30.58
2023-02-11T00:25:58.842Z,31.25
2023-02-11T00:29:02.109Z,31.10
2023-02-11T00:32:09.231Z,28.30
2023-02-11T00:35:11.799Z,28.35
2023-02-11T00:38:15.513Z,28.73
2023-02-11T00:41:19.296Z,27.63
2023-02-11T00:44:22.524Z,34.20
2023-02-11T00:47:25.030Z,33.20
2023-02-11T00:50:28.563Z,34.27
2023-02-11T00:53:32.320Z,34.65
2023-02-11T00:56:35.428Z,33.90
2023-02-11T00:59:38.210Z,30.38
2023-02-11T01:02:41.731Z,29.63
2023-02-11T01:05:46.022Z,31.30
2023-02-11T01:08:49.116Z,29.23
2023-02-11T01:11:51.562Z,27.70
2023-02-11T01:14:54.400Z,29.20
2023-02-11T01:17:56.938Z,28.50
2023-02-11T01:21:00.450Z,32.10
2023-02-11T01:24:03.182Z,30.67
2023-02-11T01:27:05.954Z,29.15
2023-02-11T01:30:10.426Z,25.92
2023-02-11T01:33:13.256Z,28.75
2023-02-11T01:36:16.021Z,29.30
2023-02-11T01:39:19.088Z,30.05
2023-02-11T01:42:23.716Z,26.97
2023-02-11T01:45:46.223Z,29.17
2023-02-11T01:48:53.368Z,28.38
2023-02-11T01:52:02.266Z,27.20
2023-02-11T01:55:27.864Z,28.35
2023-02-11T01:58:36.161Z,23.95
2023-02-11T02:01:41.616Z,25.08
2023-02-11T02:04:59.147Z,24.85
2023-02-11T02:08:23.112Z,26.27
2023-02-11T02:11:26.480Z,24.52
2023-02-11T02:14:29.058Z,26.07
2023-02-11T02:17:43.588Z,27.58
2023-02-11T02:20:52.011Z,28.90
2023-02-11T02:24:14.304Z,25.67
2023-02-11T02:27:48.723Z,28.25
2023-02-11T02:30:57.305Z,28.90
2023-02-11T02:34:02.084Z,27.27
2023-02-11T02:37:13.411Z,25.92
2023-02-11T02:40:23.459Z,24.17
2023-02-11T02:43:28.133Z,25.75
2023-02-11T02:46:32.986Z,28.43
2023-02-11T02:49:36.315Z,27.77
2023-02-11T02:52:53.677Z,26.02
2023-02-11T02:56:07.787Z,25.63
2023-02-11T02:59:29.700Z,25.40
2023-02-11T03:03:04.626Z,26.27
2023-02-11T03:06:44.228Z,27.08
2023-02-11T03:10:03.226Z,25.88
2023-02-11T03:13:07.356Z,25.02
2023-02-11T03:16:22.520Z,27.52
2023-02-11T03:19:31.225Z,26.07
2023-02-11T03:22:41.346Z,25.27
2023-02-11T03:26:23.321Z,23.85
2023-02-11T03:29:51.893Z,23.47
2023-02-11T03:33:06.926Z,24.33
2023-02-11T03:36:15.782Z,24.95
2023-02-11T03:39:24.459Z,27.63
2023-02-11T03:42:32.858Z,24.00
2023-02-11T03:45:37.995Z,26.95
2023-02-11T03:48:54.449Z,30.33
2023-02-11T03:51:58.107Z,30.27
2023-02-11T03:55:04.215Z,25.20
2023-02-11T03:58:07.462Z,25.55
2023-02-11T04:01:10.980Z,25.07
2023-02-11T04:04:13.715Z,27.45
2023-02-11T04:07:16.406Z,24.15
2023-02-11T04:10:19.279Z,22.23
2023-02-11T04:13:22.661Z,19.35
2023-02-11T04:16:25.363Z,16.38
2023-02-11T04:19:28.298Z,17.83
2023-02-11T04:22:31.017Z,14.07
2023-02-11T04:25:33.925Z,18.42
2023-02-11T04:28:36.621Z,17.58
2023-02-11T04:31:39.464Z,17.43
2023-02-11T04:34:42.153Z,17.05
2023-02-11T04:37:44.870Z,20.05
2023-02-11T04:40:47.558Z,24.70
2023-02-11T04:43:50.363Z,25.65
2023-02-11T04:46:53.116Z,23.83
2023-02-11T04:49:56.271Z,24.92
2023-02-11T04:52:58.763Z,20.07
2023-02-11T04:56:02.025Z,19.55
2023-02-11T04:59:05.350Z,20.98
2023-02-11T05:02:08.650Z,23.57
2023-02-11T05:05:11.354Z,14.93
2023-02-11T05:08:13.892Z,23.73
2023-02-11T05:11:19.349Z,22.38
2023-02-11T05:14:21.922Z,22.40
2023-02-11T05:17:24.604Z,23.55
2023-02-11T05:20:27.658Z,22.52
2023-02-11T05:23:30.174Z,26.80
2023-02-11T05:26:33.255Z,30.45
2023-02-11T05:29:35.993Z,38.10
2023-02-11T05:32:39.151Z,33.33
2023-02-11T05:35:45.039Z,29.20
2023-02-11T05:38:48.134Z,24.23
2023-02-11T05:41:50.865Z,27.83
2023-02-11T05:44:53.573Z,28.77
2023-02-11T05:47:57.111Z,29.08
2023-02-11T05:51:00.047Z,30.58
2023-02-11T05:54:02.494Z,27.40
2023-02-11T05:57:05.364Z,26.30
2023-02-11T06:00:09.362Z,25.35
2023-02-11T06:03:18.371Z,27.47
2023-02-11T06:06:21.298Z,28.45
2023-02-11T06:09:24.041Z,30.73
2023-02-11T06:12:27.222Z,28.17
2023-02-11T06:15:29.922Z,37.10
2023-02-11T06:18:33.672Z,39.00
2023-02-11T06:21:43.797Z,39.45
2023-02-11T06:25:00.708Z,39.67
2023-02-11T06:28:04.994Z,43.45
2023-02-11T06:31:08.286Z,43.30
2023-02-11T06:34:11.342Z,41.80
2023-02-11T06:37:14.146Z,48.95
2023-02-11T06:40:16.889Z,37.75
2023-02-11T06:43:20.086Z,26.63
2023-02-11T06:46:23.253Z,20.70
2023-02-11T06:49:25.998Z,27.45
2023-02-11T06:52:29.038Z,22.67
2023-02-11T06:55:31.527Z,17.40
2023-02-11T06:58:34.550Z,21.42
2023-02-11T07:01:37.303Z,19.42
2023-02-11T07:04:40.195Z,19.53
2023-02-11T07:07:42.791Z,14.98
2023-02-11T07:10:45.446Z,18.92
2023-02-11T07:13:48.322Z,16.17
2023-02-11T07:16:50.914Z,18.17
2023-02-11T07:19:53.756Z,18.23
2023-02-11T07:22:56.490Z,18.92
2023-02-11T07:26:06.934Z,17.77
2023-02-11T07:29:09.874Z,16.85
2023-02-11T07:32:13.200Z,21.52
2023-02-11T07:35:16.135Z,21.37
2023-02-11T07:38:18.954Z,13.35
2023-02-11T07:41:24.098Z,18.77
2023-02-11T07:44:26.816Z,19.45
2023-02-11T07:47:29.446Z,19.95
2023-02-11T07:50:32.053Z,19.30
2023-02-11T07:53:34.814Z,20.08
2023-02-11T07:56:37.242Z,19.97
2023-02-11T07:59:40.197Z,21.52
2023-02-11T08:02:42.864Z,14.52
2023-02-11T08:05:45.938Z,19.40
2023-02-11T08:08:49.207Z,20.65
2023-02-11T08:11:51.972Z,21.38
2023-02-11T08:14:55.270Z,19.73
2023-02-11T08:17:57.866Z,22.17
2023-02-11T08:21:05.885Z,19.88
2023-02-11T08:24:09.107Z,23.48
2023-02-11T08:27:11.565Z,20.77
2023-02-11T08:30:14.563Z,21.63
2023-02-11T08:33:16.954Z,23.45
2023-02-11T08:36:22.500Z,23.83
2023-02-11T08:39:25.255Z,23.88
2023-02-11T08:42:27.951Z,23.60
2023-02-11T08:45:30.743Z,26.33
2023-02-11T08:48:33.722Z,25.35
2023-02-11T08:51:36.320Z,24.50
2023-02-11T08:54:39.331Z,19.38
2023-02-11T08:57:41.739Z,20.13
2023-02-11T09:00:45.546Z,29.48
2023-02-11T09:03:48.479Z,28.10
2023-02-11T09:06:51.466Z,28.60
2023-02-11T09:09:53.997Z,23.70
2023-02-11T09:12:57.043Z,27.83
2023-02-11T09:16:01.745Z,25.75
2023-02-11T09:19:05.285Z,26.95
2023-02-11T09:22:08.212Z,26.20
2023-02-11T09:25:11.634Z,26.58
2023-02-11T09:28:14.088Z,15.20
2023-02-11T09:31:19.498Z,29.40
2023-02-11T09:34:22.017Z,14.60
2023-02-11T09:37:24.736Z,11.97
2023-02-11T09:40:27.678Z,19.67
2023-02-11T09:44:03.285Z,30.08
2023-02-11T09:47:34.836Z,29.70
2023-02-11T09:50:42.910Z,25.88
2023-02-11T09:53:45.829Z,26.48
2023-02-11T09:56:48.517Z,27.40
2023-02-11T09:59:51.084Z,25.43
2023-02-11T10:03:18.387Z,27.98
2023-02-11T10:06:32.894Z,26.92
2023-02-11T10:09:45.559Z,27.30
2023-02-11T10:13:18.634Z,23.52
2023-02-11T10:16:43.524Z,26.83
2023-02-11T10:20:14.622Z,29.75
2023-02-11T10:23:22.635Z,17.50
2023-02-11T10:26:30.942Z,22.08
2023-02-11T10:29:49.914Z,29.35
2023-02-11T10:32:59.745Z,21.00
2023-02-11T10:36:04.349Z,31.83
2023-02-11T10:39:17.759Z,31.77
2023-02-11T10:42:20.491Z,15.60
2023-02-11T10:45:33.318Z,29.35
2023-02-11T10:48:37.562Z,27.30
2023-02-11T10:51:40.233Z,26.70
2023-02-11T10:54:55.354Z,17.70
2023-02-11T10:58:02.834Z,21.08
2023-02-11T11:01:19.026Z,15.30
2023-02-11T11:04:44.052Z,25.20
2023-02-11T11:08:02.495Z,20.83
2023-02-11T11:11:09.032Z,18.63
2023-02-11T11:14:20.765Z,20.23
2023-02-11T11:17:23.551Z,22.58
2023-02-11T11:20:29.379Z,18.98
2023-02-11T11:23:32.484Z,21.33
2023-02-11T11:26:49.089Z,17.08
2023-02-11T11:29:55.386Z,16.67
2023-02-11T11:32:59.475Z,21.80
2023-02-11T11:36:09.556Z,19.67
2023-02-11T11:39:26.738Z,22.13
2023-02-11T11:42:34.825Z,24.80
2023-02-11T11:45:37.746Z,20.73
2023-02-11T11:48:47.589Z,25.48
2023-02-11T11:52:19.444Z,26.65
2023-02-11T11:55:27.185Z,15.50
2023-02-11T11:58:32.366Z,23.75
2023-02-11T12:01:54.083Z,19.98
2023-02-11T12:05:14.928Z,21.63
2023-02-11T12:08:31.463Z,26.63
2023-02-11T12:12:03.020Z,23.70
2023-02-11T12:15:31.401Z,27.23
2023-02-11T12:19:12.274Z,29.37
2023-02-11T12:22:41.950Z,24.33
2023-02-11T12:26:16.062Z,18.63
2023-02-11T12:29:36.783Z,14.98
2023-02-11T12:32:45.053Z,27.05
2023-02-11T12:36:05.981Z,22.15
2023-02-11T12:39:12.082Z,17.45
2023-02-11T12:42:57.590Z,22.20
2023-02-11T12:46:33.601Z,19.45
2023-02-11T12:50:18.182Z,24.60
2023-02-11T12:53:29.205Z,21.80
2023-02-11T12:56:39.710Z,23.98
2023-02-11T12:59:57.207Z,22.42
2023-02-11T13:03:07.215Z,22.17
2023-02-11T13:06:16.517Z,22.77
2023-02-11T13:09:32.367Z,22.13
2023-02-11T13:12:55.634Z,20.60
2023-02-11T13:16:19.962Z,21.73
2023-02-11T13:19:41.331Z,23.15
2023-02-11T13:22:51.906Z,21.63
2023-02-11T13:26:24.086Z,22.23
2023-02-11T13:29:36.419Z,21.20
2023-02-11T13:33:16.550Z,15.82
2023-02-11T13:36:22.023Z,12.68
2023-02-11T13:39:25.090Z,21.98
2023-02-11T13:42:29.838Z,19.45
2023-02-11T13:45:50.039Z,21.02
2023-02-11T13:48:54.101Z,20.50
2023-02-11T13:51:58.101Z,17.38
2023-02-11T13:55:19.930Z,18.13
2023-02-11T13:58:29.598Z,17.00
2023-02-11T14:02:07.818Z,19.17
2023-02-11T14:05:39.167Z,19.80
2023-02-11T14:09:01.631Z,14.48
2023-02-11T14:12:31.259Z,18.13
2023-02-11T14:15:41.194Z,18.20
2023-02-11T14:18:55.937Z,18.65
2023-02-11T14:22:13.532Z,20.17
2023-02-11T14:25:27.220Z,17.90
2023-02-11T14:28:34.487Z,19.40
2023-02-11T14:32:05.724Z,19.13
2023-02-11T14:35:47.469Z,18.85
2023-02-11T14:39:29.919Z,19.23
2023-02-11T14:42:34.609Z,18.48
2023-02-11T14:45:38.698Z,18.05
2023-02-11T14:48:46.949Z,18.75
2023-02-11T14:51:49.903Z,20.08
2023-02-11T14:55:17.791Z,20.13
2023-02-11T14:58:27.204Z,18.83
2023-02-11T15:01:36.041Z,20.45
2023-02-11T15:04:40.794Z,19.23
2023-02-11T15:07:49.654Z,19.20
2023-02-11T15:10:55.259Z,20.73
2023-02-11T15:14:01.894Z,19.30
